Time,TemperatureF,DewpointF,PressureIn,WindDirection,WindDirectionDegrees,WindSpeedMPH,WindSpeedGustMPH,Humidity,HourlyPrecipIn,Conditions,Clouds,dailyrainin,SoftwareType,DateUTC
2013-01-10 00:05:00,38.0,20.0,30.14,NW,321,1.0,2.0,48,0.00,,,0.00,Wunderground v.1.15,2013-01-10 07:05:00,
2013-01-10 00:11:00,37.1,20.2,30.14,NW,321,1.0,1.0,50,0.00,,,0.00,Wunderground v.1.15,2013-01-10 07:11:00,
2013-01-10 00:17:00,36.6,19.7,30.13,NW,321,2.0,2.0,50,0.00,,,0.00,Wunderground v.1.15,2013-01-10 07:17:00,
2013-01-10 00:23:00,36.5,20.1,30.13,NW,309,2.0,3.0,51,0.00,,,0.00,Wunderground v.1.15,2013-01-10 07:23:00,
2013-01-10 00:29:00,36.6,19.7,30.13,NW,304,3.0,4.0,50,0.00,,,0.00,Wunderground v.1.15,2013-01-10 07:29:00,
2013-01-10 00:35:00,37.1,20.2,30.13,NW,304,3.0,3.0,50,0.00,,,0.00,Wunderground v.1.15,2013-01-10 07:35:00,
2013-01-10 00:41:00,37.0,19.6,30.14,WNW,294,2.0,3.0,49,0.00,,,0.00,Wunderground v.1.15,2013-01-10 07:41:00,
2013-01-10 00:47:00,36.1,19.7,30.13,WNW,291,2.0,3.0,51,0.00,,,0.00,Wunderground v.1.15,2013-01-10 07:47:00,
2013-01-10 00:52:00,36.2,19.3,30.14,WNW,291,2.0,4.0,50,0.00,,,0.00,Wunderground v.1.15,2013-01-10 07:52:00,
2013-01-10 00:58:00,36.7,19.3,30.14,WNW,293,3.0,4.0,49,0.00,,,0.00,Wunderground v.1.15,2013-01-10 07:58:00,
2013-01-10 01:04:00,36.8,19.4,30.13,NW,306,3.0,5.0,49,0.00,,,0.00,Wunderground v.1.15,2013-01-10 08:04:00,
2013-01-10 01:10:00,37.1,19.2,30.13,WNW,301,5.0,7.0,48,0.00,,,0.00,Wunderground v.1.15,2013-01-10 08:10:00,
2013-01-10 01:16:00,37.1,19.7,30.13,NW,309,5.0,7.0,49,0.00,,,0.00,Wunderground v.1.15,2013-01-10 08:16:00,
2013-01-10 01:22:00,37.1,19.7,30.13,West,266,4.0,5.0,49,0.00,,,0.00,Wunderground v.1.15,2013-01-10 08:22:00,
2013-01-10 01:28:00,36.8,19.4,30.13,West,277,4.0,6.0,49,0.00,,,0.00,Wunderground v.1.15,2013-01-10 08:28:00,
2013-01-10 01:34:00,36.8,19.4,30.13,WNW,290,3.0,4.0,49,0.00,,,0.00,Wunderground v.1.15,2013-01-10 08:34:00,
2013-01-10 01:40:00,36.9,19.0,30.13,NW,305,3.0,4.0,48,0.00,,,0.00,Wunderground v.1.15,2013-01-10 08:40:00,
2013-01-10 01:46:00,36.9,19.0,30.13,NW,311,4.0,4.0,48,0.00,,,0.00,Wunderground v.1.15,2013-01-10 08:46:00,
2013-01-10 01:51:00,36.4,19.0,30.13,WNW,296,4.0,4.0,49,0.00,,,0.00,Wunderground v.1.15,2013-01-10 08:51:00,
2013-01-10 01:57:00,35.3,19.0,30.13,West,278,3.0,5.0,51,0.00,,,0.00,Wunderground v.1.15,2013-01-10 08:57:00,
2013-01-10 02:03:00,35.3,19.0,30.12,WNW,299,3.0,5.0,51,0.00,,,0.00,Wunderground v.1.15,2013-01-10 09:03:00,
2013-01-10 02:09:00,34.7,18.9,30.12,WNW,302,3.0,5.0,52,0.00,,,0.00,Wunderground v.1.15,2013-01-10 09:09:00,
2013-01-10 02:15:00,33.2,18.3,30.12,NW,304,3.0,4.0,54,0.00,,,0.00,Wunderground v.1.15,2013-01-10 09:15:00,
2013-01-10 02:20:00,32.3,18.3,30.12,NW,304,2.0,2.0,56,0.00,,,0.00,Wunderground v.1.15,2013-01-10 09:20:00,
2013-01-10 02:26:00,31.7,18.6,30.11,NW,304,1.0,3.0,58,0.00,,,0.00,Wunderground v.1.15,2013-01-10 09:26:00,
2013-01-10 02:32:00,31.1,18.4,30.11,NW,304,1.0,3.0,59,0.00,,,0.00,Wunderground v.1.15,2013-01-10 09:32:00,
2013-01-10 02:37:00,30.8,18.1,30.11,NW,304,1.0,3.0,59,0.00,,,0.00,Wunderground v.1.15,2013-01-10 09:37:00,
2013-01-10 02:43:00,30.7,18.4,30.11,NW,304,0.0,3.0,60,0.00,,,0.00,Wunderground v.1.15,2013-01-10 09:43:00,
2013-01-10 02:49:00,30.8,18.5,30.11,NW,304,1.0,3.0,60,0.00,,,0.00,Wunderground v.1.15,2013-01-10 09:49:00,
2013-01-10 02:55:00,30.9,18.6,30.11,NW,305,2.0,4.0,60,0.00,,,0.00,Wunderground v.1.15,2013-01-10 09:55:00,
2013-01-10 03:01:00,30.8,18.5,30.10,NW,305,1.0,3.0,60,0.00,,,0.00,Wunderground v.1.15,2013-01-10 10:01:00,
2013-01-10 03:07:00,30.8,18.5,30.10,NW,305,1.0,3.0,60,0.00,,,0.00,Wunderground v.1.15,2013-01-10 10:07:00,
2013-01-10 03:13:00,30.7,18.4,30.10,NW,305,1.0,3.0,60,0.00,,,0.00,Wunderground v.1.15,2013-01-10 10:13:00,
2013-01-10 03:19:00,30.5,18.6,30.10,NW,305,1.0,3.0,61,0.00,,,0.00,Wunderground v.1.15,2013-01-10 10:19:00,
2013-01-10 03:24:00,30.8,19.3,30.10,NW,305,1.0,3.0,62,0.00,,,0.00,Wunderground v.1.15,2013-01-10 10:24:00,
2013-01-10 03:30:00,30.9,19.0,30.09,NW,305,1.0,3.0,61,0.00,,,0.00,Wunderground v.1.15,2013-01-10 10:30:00,
2013-01-10 03:35:00,30.6,18.7,30.09,NW,305,1.0,3.0,61,0.00,,,0.00,Wunderground v.1.15,2013-01-10 10:35:00,
2013-01-10 03:41:00,30.3,18.8,30.08,NW,305,0.0,3.0,62,0.00,,,0.00,Wunderground v.1.15,2013-01-10 10:41:00,
2013-01-10 03:47:00,30.2,19.1,30.08,NW,305,1.0,3.0,63,0.00,,,0.00,Wunderground v.1.15,2013-01-10 10:47:00,
2013-01-10 03:53:00,29.9,18.5,30.08,NW,305,0.0,3.0,62,0.00,,,0.00,Wunderground v.1.15,2013-01-10 10:53:00,
2013-01-10 03:59:00,29.7,18.6,30.08,WNW,303,1.0,3.0,63,0.00,,,0.00,Wunderground v.1.15,2013-01-10 10:59:00,
2013-01-10 04:05:00,29.6,18.9,30.08,WNW,302,2.0,3.0,64,0.00,,,0.00,Wunderground v.1.15,2013-01-10 11:05:00,
2013-01-10 04:10:00,28.7,18.4,30.08,WNW,302,1.0,3.0,65,0.00,,,0.00,Wunderground v.1.15,2013-01-10 11:10:00,
2013-01-10 04:16:00,28.2,19.0,30.08,WNW,302,1.0,3.0,68,0.00,,,0.00,Wunderground v.1.15,2013-01-10 11:16:00,
2013-01-10 04:22:00,28.4,19.2,30.07,WNW,302,1.0,3.0,68,0.00,,,0.00,Wunderground v.1.15,2013-01-10 11:22:00,
2013-01-10 04:28:00,28.5,18.9,30.07,WNW,302,2.0,3.0,67,0.00,,,0.00,Wunderground v.1.15,2013-01-10 11:28:00,
2013-01-10 04:34:00,28.9,18.6,30.07,NW,305,2.0,3.0,65,0.00,,,0.00,Wunderground v.1.15,2013-01-10 11:34:00,
2013-01-10 04:40:00,29.2,18.5,30.07,NW,305,2.0,3.0,64,0.00,,,0.00,Wunderground v.1.15,2013-01-10 11:40:00,
2013-01-10 04:46:00,28.8,18.5,30.06,WNW,303,2.0,3.0,65,0.00,,,0.00,Wunderground v.1.15,2013-01-10 11:46:00,
2013-01-10 04:52:00,29.0,19.1,30.06,NW,304,3.0,5.0,66,0.00,,,0.00,Wunderground v.1.15,2013-01-10 11:52:00,
2013-01-10 05:03:00,30.0,18.9,30.06,WNW,296,3.0,5.0,63,0.00,,,0.00,Wunderground v.1.15,2013-01-10 12:03:00,
2013-01-10 05:09:00,30.5,19.4,30.06,NW,309,4.0,4.0,63,0.00,,,0.00,Wunderground v.1.15,2013-01-10 12:09:00,
2013-01-10 05:14:00,31.2,19.3,30.06,NW,307,4.0,5.0,61,0.00,,,0.00,Wunderground v.1.15,2013-01-10 12:14:00,
2013-01-10 05:20:00,31.3,19.4,30.06,WNW,295,4.0,4.0,61,0.00,,,0.00,Wunderground v.1.15,2013-01-10 12:20:00,
2013-01-10 05:25:00,31.6,19.3,30.06,WNW,302,3.0,4.0,60,0.00,,,0.00,Wunderground v.1.15,2013-01-10 12:25:00,
2013-01-10 05:31:00,31.8,19.1,30.06,WNW,302,3.0,3.0,59,0.00,,,0.00,Wunderground v.1.15,2013-01-10 12:31:00,
2013-01-10 05:36:00,31.7,19.4,30.06,WNW,294,4.0,6.0,60,0.00,,,0.00,Wunderground v.1.15,2013-01-10 12:36:00,
2013-01-10 05:42:00,31.6,18.9,30.06,NW,304,5.0,5.0,59,0.00,,,0.00,Wunderground v.1.15,2013-01-10 12:42:00,
2013-01-10 05:47:00,31.9,19.2,30.06,WNW,301,5.0,5.0,59,0.00,,,0.00,Wunderground v.1.15,2013-01-10 12:47:00,
2013-01-10 05:52:00,31.8,19.1,30.07,WNW,296,4.0,5.0,59,0.00,,,0.00,Wunderground v.1.15,2013-01-10 12:52:00,
2013-01-10 05:58:00,31.4,19.1,30.06,NW,304,4.0,5.0,60,0.00,,,0.00,Wunderground v.1.15,2013-01-10 12:58:00,
2013-01-10 06:03:00,31.3,19.0,30.06,WNW,298,3.0,4.0,60,0.00,,,0.00,Wunderground v.1.15,2013-01-10 13:03:00,
2013-01-10 06:08:00,31.2,19.3,30.06,WNW,296,2.0,4.0,61,0.00,,,0.00,Wunderground v.1.15,2013-01-10 13:08:00,
2013-01-10 06:13:00,31.2,19.3,30.06,WNW,296,3.0,3.0,61,0.00,,,0.00,Wunderground v.1.15,2013-01-10 13:13:00,
2013-01-10 06:19:00,31.7,19.4,30.06,WNW,298,3.0,4.0,60,0.00,,,0.00,Wunderground v.1.15,2013-01-10 13:19:00,
2013-01-10 06:24:00,33.0,19.8,30.06,WNW,290,3.0,3.0,58,0.00,,,0.00,Wunderground v.1.15,2013-01-10 13:24:00,
2013-01-10 06:30:00,35.8,20.3,30.06,West,276,3.0,4.0,53,0.00,,,0.00,Wunderground v.1.15,2013-01-10 13:30:00,
2013-01-10 06:36:00,40.8,20.5,30.06,West,271,3.0,5.0,44,0.00,,,0.00,Wunderground v.1.15,2013-01-10 13:36:00,
2013-01-10 06:41:00,43.9,19.9,30.06,West,265,4.0,6.0,38,0.00,,,0.00,Wunderground v.1.15,2013-01-10 13:41:00,
2013-01-10 06:46:00,45.1,19.7,30.06,West,262,4.0,6.0,36,0.00,,,0.00,Wunderground v.1.15,2013-01-10 13:46:00,
2013-01-10 06:52:00,45.3,19.2,30.06,West,272,4.0,5.0,35,0.00,,,0.00,Wunderground v.1.15,2013-01-10 13:52:00,
2013-01-10 06:57:00,45.4,18.6,30.06,West,273,4.0,6.0,34,0.00,,,0.00,Wunderground v.1.15,2013-01-10 13:57:00,
2013-01-10 07:02:00,45.4,18.6,30.06,West,263,4.0,4.0,34,0.00,,,0.00,Wunderground v.1.15,2013-01-10 14:02:00,
2013-01-10 07:08:00,45.4,18.6,30.06,WSW,253,4.0,7.0,34,0.00,,,0.00,Wunderground v.1.15,2013-01-10 14:08:00,
2013-01-10 07:13:00,45.8,18.3,30.06,WSW,244,5.0,7.0,33,0.00,,,0.00,Wunderground v.1.15,2013-01-10 14:13:00,
2013-01-10 07:18:00,45.6,18.8,30.06,WSW,255,6.0,7.0,34,0.00,,,0.00,Wunderground v.1.15,2013-01-10 14:18:00,
2013-01-10 07:24:00,45.6,18.1,30.06,WSW,238,6.0,6.0,33,0.00,,,0.00,Wunderground v.1.15,2013-01-10 14:24:00,
2013-01-10 07:29:00,46.0,18.5,30.06,WSW,248,6.0,10.0,33,0.00,,,0.00,Wunderground v.1.15,2013-01-10 14:29:00,
2013-01-10 07:35:00,46.3,18.0,30.06,WSW,239,6.0,7.0,32,0.00,,,0.00,Wunderground v.1.15,2013-01-10 14:35:00,
2013-01-10 07:40:00,46.3,18.0,30.06,WSW,246,6.0,6.0,32,0.00,,,0.00,Wunderground v.1.15,2013-01-10 14:40:00,
2013-01-10 07:45:00,46.4,18.1,30.06,WSW,246,5.0,9.0,32,0.00,,,0.00,Wunderground v.1.15,2013-01-10 14:45:00,
2013-01-10 07:51:00,46.5,18.2,30.06,WSW,249,5.0,5.0,32,0.00,,,0.00,Wunderground v.1.15,2013-01-10 14:51:00,
2013-01-10 07:56:00,46.7,18.4,30.07,WSW,246,5.0,8.0,32,0.00,,,0.00,Wunderground v.1.15,2013-01-10 14:56:00,
2013-01-10 08:02:00,47.0,18.6,30.07,WSW,243,5.0,5.0,32,0.00,,,0.00,Wunderground v.1.15,2013-01-10 15:02:00,
2013-01-10 08:07:00,47.6,19.2,30.07,WSW,242,4.0,5.0,32,0.00,,,0.00,Wunderground v.1.15,2013-01-10 15:07:00,
2013-01-10 08:12:00,48.5,19.2,30.07,WSW,250,4.0,5.0,31,0.00,,,0.00,Wunderground v.1.15,2013-01-10 15:12:00,
2013-01-10 08:18:00,49.7,19.5,30.07,SW,218,5.0,6.0,30,0.00,,,0.00,Wunderground v.1.15,2013-01-10 15:18:00,
2013-01-10 08:23:00,49.2,19.8,30.07,ESE,117,5.0,5.0,31,0.00,,,0.00,Wunderground v.1.15,2013-01-10 15:23:00,
2013-01-10 08:29:00,45.4,20.0,30.07,ESE,123,4.0,5.0,36,0.00,,,0.00,Wunderground v.1.15,2013-01-10 15:29:00,
2013-01-10 08:34:00,43.0,20.3,30.08,ESE,118,2.0,4.0,40,0.00,,,0.00,Wunderground v.1.15,2013-01-10 15:34:00,
2013-01-10 08:40:00,41.4,20.0,30.08,ESE,115,2.0,2.0,42,0.00,,,0.00,Wunderground v.1.15,2013-01-10 15:40:00,
2013-01-10 08:45:00,40.9,20.1,30.08,East,93,1.0,3.0,43,0.00,,,0.00,Wunderground v.1.15,2013-01-10 15:45:00,
2013-01-10 08:51:00,40.7,20.5,30.07,ENE,76,1.0,3.0,44,0.00,,,0.00,Wunderground v.1.15,2013-01-10 15:51:00,
2013-01-10 08:56:00,40.7,21.0,30.08,ENE,76,1.0,3.0,45,0.00,,,0.00,Wunderground v.1.15,2013-01-10 15:56:00,
2013-01-10 09:01:00,40.8,20.5,30.08,ENE,76,0.0,3.0,44,0.00,,,0.00,Wunderground v.1.15,2013-01-10 16:01:00,
2013-01-10 09:07:00,41.0,21.8,30.08,ENE,76,0.0,3.0,46,0.00,,,0.00,Wunderground v.1.15,2013-01-10 16:07:00,
2013-01-10 09:12:00,41.2,20.9,30.08,ENE,76,0.0,3.0,44,0.00,,,0.00,Wunderground v.1.15,2013-01-10 16:12:00,
2013-01-10 09:18:00,41.4,21.6,30.08,ENE,76,0.0,3.0,45,0.00,,,0.00,Wunderground v.1.15,2013-01-10 16:18:00,
2013-01-10 09:23:00,41.6,21.8,30.08,ENE,76,0.0,3.0,45,0.00,,,0.00,Wunderground v.1.15,2013-01-10 16:23:00,
2013-01-10 09:29:00,41.9,22.1,30.08,ENE,74,0.0,3.0,45,0.00,,,0.00,Wunderground v.1.15,2013-01-10 16:29:00,
2013-01-10 09:35:00,42.3,21.4,30.08,ENE,60,1.0,3.0,43,0.00,,,0.00,Wunderground v.1.15,2013-01-10 16:35:00,
2013-01-10 09:41:00,42.7,21.7,30.07,ENE,60,1.0,3.0,43,0.00,,,0.00,Wunderground v.1.15,2013-01-10 16:41:00,
2013-01-10 09:46:00,43.1,21.5,30.07,ENE,60,0.0,3.0,42,0.00,,,0.00,Wunderground v.1.15,2013-01-10 16:46:00,
2013-01-10 09:52:00,43.4,21.8,30.06,ENE,60,1.0,3.0,42,0.00,,,0.00,Wunderground v.1.15,2013-01-10 16:52:00,
2013-01-10 09:58:00,44.0,21.8,30.06,ENE,60,1.0,3.0,41,0.00,,,0.00,Wunderground v.1.15,2013-01-10 16:58:00,
2013-01-10 10:03:00,44.5,21.6,30.06,ENE,59,1.0,3.0,40,0.00,,,0.00,Wunderground v.1.15,2013-01-10 17:03:00,
2013-01-10 10:09:00,45.4,21.2,30.07,ENE,57,1.0,3.0,38,0.00,,,0.00,Wunderground v.1.15,2013-01-10 17:09:00,
2013-01-10 10:14:00,46.1,20.6,30.07,ENE,57,0.0,3.0,36,0.00,,,0.00,Wunderground v.1.15,2013-01-10 17:14:00,
2013-01-10 10:20:00,47.0,20.0,30.07,ENE,57,0.0,3.0,34,0.00,,,0.00,Wunderground v.1.15,2013-01-10 17:20:00,
2013-01-10 10:25:00,47.8,20.8,30.06,ENE,75,1.0,3.0,34,0.00,,,0.00,Wunderground v.1.15,2013-01-10 17:25:00,
2013-01-10 10:31:00,48.6,20.8,30.05,East,82,2.0,3.0,33,0.00,,,0.00,Wunderground v.1.15,2013-01-10 17:31:00,
2013-01-10 10:36:00,48.9,20.3,30.05,ENE,78,2.0,3.0,32,0.00,,,0.00,Wunderground v.1.15,2013-01-10 17:36:00,
2013-01-10 10:42:00,49.3,20.6,30.05,NE,53,2.0,3.0,32,0.00,,,0.00,Wunderground v.1.15,2013-01-10 17:42:00,
2013-01-10 10:47:00,49.4,20.7,30.05,ENE,76,3.0,6.0,32,0.00,,,0.00,Wunderground v.1.15,2013-01-10 17:47:00,
2013-01-10 10:52:00,49.3,22.1,30.05,East,92,3.0,3.0,34,0.00,,,0.00,Wunderground v.1.15,2013-01-10 17:52:00,
2013-01-10 10:58:00,49.5,21.5,30.05,East,96,2.0,3.0,33,0.00,,,0.00,Wunderground v.1.15,2013-01-10 17:58:00,
2013-01-10 11:03:00,49.9,21.2,30.05,ENE,60,2.0,3.0,32,0.00,,,0.00,Wunderground v.1.15,2013-01-10 18:03:00,
2013-01-10 11:08:00,50.6,21.0,30.03,East,94,2.0,5.0,31,0.00,,,0.00,Wunderground v.1.15,2013-01-10 18:08:00,
2013-01-10 11:14:00,51.2,20.8,30.03,East,96,3.0,3.0,30,0.00,,,0.00,Wunderground v.1.15,2013-01-10 18:14:00,
2013-01-10 11:19:00,51.5,21.0,30.02,ENE,70,3.0,6.0,30,0.00,,,0.00,Wunderground v.1.15,2013-01-10 18:19:00,
2013-01-10 11:24:00,51.6,21.1,30.01,East,82,4.0,7.0,30,0.00,,,0.00,Wunderground v.1.15,2013-01-10 18:24:00,
2013-01-10 11:30:00,51.9,20.6,30.01,NE,49,4.0,4.0,29,0.00,,,0.00,Wunderground v.1.15,2013-01-10 18:30:00,
2013-01-10 11:35:00,51.9,20.6,30.00,ENE,74,4.0,5.0,29,0.00,,,0.00,Wunderground v.1.15,2013-01-10 18:35:00,
2013-01-10 11:41:00,52.2,21.7,30.00,NE,49,3.0,5.0,30,0.00,,,0.00,Wunderground v.1.15,2013-01-10 18:41:00,
2013-01-10 11:46:00,53.2,20.9,29.99,NE,49,3.0,5.0,28,0.00,,,0.00,Wunderground v.1.15,2013-01-10 18:46:00,
2013-01-10 11:51:00,53.9,21.5,29.98,NE,36,3.0,5.0,28,0.00,,,0.00,Wunderground v.1.15,2013-01-10 18:51:00,
2013-01-10 11:57:00,54.3,20.1,29.98,East,80,4.0,5.0,26,0.00,,,0.00,Wunderground v.1.15,2013-01-10 18:57:00,
2013-01-10 12:02:00,55.0,20.7,29.99,East,79,2.0,3.0,26,0.00,,,0.00,Wunderground v.1.15,2013-01-10 19:02:00,
2013-01-10 12:07:00,56.0,19.7,29.99,ENE,63,1.0,3.0,24,0.00,,,0.00,Wunderground v.1.15,2013-01-10 19:07:00,
2013-01-10 12:13:00,56.7,19.3,29.98,SE,136,1.0,3.0,23,0.00,,,0.00,Wunderground v.1.15,2013-01-10 19:13:00,
2013-01-10 12:18:00,57.6,19.0,29.98,SSW,210,1.0,4.0,22,0.00,,,0.00,Wunderground v.1.15,2013-01-10 19:18:00,
2013-01-10 12:24:00,58.3,18.5,29.97,WSW,243,2.0,7.0,21,0.00,,,0.00,Wunderground v.1.15,2013-01-10 19:24:00,
2013-01-10 12:29:00,59.0,17.9,29.96,South,180,3.0,7.0,20,0.00,,,0.00,Wunderground v.1.15,2013-01-10 19:29:00,
2013-01-10 12:35:00,59.7,18.5,29.95,SSW,201,8.0,16.0,20,0.00,,,0.00,Wunderground v.1.15,2013-01-10 19:35:00,
2013-01-10 12:40:00,59.5,18.3,29.95,SSW,208,11.0,11.0,20,0.00,,,0.00,Wunderground v.1.15,2013-01-10 19:40:00,
2013-01-10 12:46:00,58.7,18.8,29.95,SSW,205,12.0,19.0,21,0.00,,,0.00,Wunderground v.1.15,2013-01-10 19:46:00,
2013-01-10 12:51:00,58.9,19.0,29.94,SW,221,13.0,20.0,21,0.00,,,0.00,Wunderground v.1.15,2013-01-10 19:51:00,
2013-01-10 12:57:00,58.8,18.9,29.94,SSW,194,14.0,20.0,21,0.00,,,0.00,Wunderground v.1.15,2013-01-10 19:57:00,
2013-01-10 13:03:00,59.6,19.6,29.94,WSW,244,13.0,14.0,21,0.00,,,0.00,Wunderground v.1.15,2013-01-10 20:03:00,
2013-01-10 13:08:00,60.2,20.1,29.94,SW,216,12.0,14.0,21,0.00,,,0.00,Wunderground v.1.15,2013-01-10 20:08:00,
2013-01-10 13:13:00,60.4,19.1,29.94,WSW,241,13.0,17.0,20,0.00,,,0.00,Wunderground v.1.15,2013-01-10 20:13:00,
2013-01-10 13:19:00,61.2,18.6,29.93,SW,226,13.0,18.0,19,0.00,,,0.00,Wunderground v.1.15,2013-01-10 20:19:00,
2013-01-10 13:24:00,61.4,18.7,29.93,SSW,204,14.0,21.0,19,0.00,,,0.00,Wunderground v.1.15,2013-01-10 20:24:00,
2013-01-10 13:30:00,61.8,19.0,29.93,South,178,15.0,15.0,19,0.00,,,0.00,Wunderground v.1.15,2013-01-10 20:30:00,
2013-01-10 13:36:00,62.3,19.5,29.93,SW,225,15.0,18.0,19,0.00,,,0.00,Wunderground v.1.15,2013-01-10 20:36:00,
2013-01-10 13:42:00,62.1,19.3,29.92,SW,222,15.0,15.0,19,0.00,,,0.00,Wunderground v.1.15,2013-01-10 20:42:00,
2013-01-10 13:47:00,61.0,18.4,29.92,WSW,239,14.0,18.0,19,0.00,,,0.00,Wunderground v.1.15,2013-01-10 20:47:00,
2013-01-10 13:53:00,60.2,18.9,29.93,SSW,207,15.0,21.0,20,0.00,,,0.00,Wunderground v.1.15,2013-01-10 20:53:00,
2013-01-10 13:58:00,59.9,18.7,29.92,WSW,248,15.0,21.0,20,0.00,,,0.00,Wunderground v.1.15,2013-01-10 20:58:00,
2013-01-10 14:04:00,60.2,18.9,29.92,SW,225,14.0,21.0,20,0.00,,,0.00,Wunderground v.1.15,2013-01-10 21:04:00,
2013-01-10 14:09:00,59.7,18.5,29.92,SSW,207,13.0,21.0,20,0.00,,,0.00,Wunderground v.1.15,2013-01-10 21:09:00,
2013-01-10 14:14:00,59.5,17.1,29.91,SSW,213,13.0,14.0,19,0.00,,,0.00,Wunderground v.1.15,2013-01-10 21:14:00,
2013-01-10 14:20:00,59.9,18.7,29.90,SSW,205,12.0,12.0,20,0.00,,,0.00,Wunderground v.1.15,2013-01-10 21:20:00,
2013-01-10 14:25:00,60.6,18.1,29.91,SW,234,11.0,16.0,19,0.00,,,0.00,Wunderground v.1.15,2013-01-10 21:25:00,
2013-01-10 14:31:00,61.3,17.4,29.90,SW,218,12.0,12.0,18,0.00,,,0.00,Wunderground v.1.15,2013-01-10 21:31:00,
2013-01-10 14:36:00,61.2,17.3,29.90,SW,225,11.0,16.0,18,0.00,,,0.00,Wunderground v.1.15,2013-01-10 21:36:00,
2013-01-10 14:42:00,61.3,17.4,29.90,WSW,246,11.0,17.0,18,0.00,,,0.00,Wunderground v.1.15,2013-01-10 21:42:00,
2013-01-10 14:47:00,61.1,17.2,29.91,SW,233,13.0,20.0,18,0.00,,,0.00,Wunderground v.1.15,2013-01-10 21:47:00,
2013-01-10 14:53:00,60.5,18.0,29.91,SW,236,15.0,16.0,19,0.00,,,0.00,Wunderground v.1.15,2013-01-10 21:53:00,
2013-01-10 14:58:00,60.6,16.8,29.90,SW,236,15.0,20.0,18,0.00,,,0.00,Wunderground v.1.15,2013-01-10 21:58:00,
2013-01-10 15:04:00,60.7,18.1,29.91,SW,227,16.0,22.0,19,0.00,,,0.00,Wunderground v.1.15,2013-01-10 22:04:00,
2013-01-10 15:09:00,61.1,18.5,29.91,WSW,249,15.0,22.0,19,0.00,,,0.00,Wunderground v.1.15,2013-01-10 22:09:00,
2013-01-10 15:15:00,60.1,18.8,29.92,SW,236,14.0,18.0,20,0.00,,,0.00,Wunderground v.1.15,2013-01-10 22:15:00,
2013-01-10 15:20:00,59.5,19.5,29.92,SSW,213,13.0,13.0,21,0.00,,,0.00,Wunderground v.1.15,2013-01-10 22:20:00,
2013-01-10 15:25:00,59.0,19.1,29.93,SW,233,12.0,18.0,21,0.00,,,0.00,Wunderground v.1.15,2013-01-10 22:25:00,
2013-01-10 15:31:00,58.8,20.0,29.92,SW,216,13.0,20.0,22,0.00,,,0.00,Wunderground v.1.15,2013-01-10 22:31:00,
2013-01-10 15:36:00,59.6,19.6,29.92,SW,230,15.0,23.0,21,0.00,,,0.00,Wunderground v.1.15,2013-01-10 22:36:00,
2013-01-10 15:42:00,59.5,20.6,29.92,WSW,257,16.0,16.0,22,0.00,,,0.00,Wunderground v.1.15,2013-01-10 22:42:00,
2013-01-10 15:47:00,58.9,20.1,29.92,WSW,246,13.0,19.0,22,0.00,,,0.00,Wunderground v.1.15,2013-01-10 22:47:00,
2013-01-10 15:52:00,58.6,20.9,29.92,WSW,240,12.0,17.0,23,0.00,,,0.00,Wunderground v.1.15,2013-01-10 22:52:00,
2013-01-10 15:58:00,58.7,21.0,29.92,WSW,241,10.0,17.0,23,0.00,,,0.00,Wunderground v.1.15,2013-01-10 22:58:00,
2013-01-10 16:04:00,58.4,20.7,29.92,WSW,240,9.0,11.0,23,0.00,,,0.00,Wunderground v.1.15,2013-01-10 23:04:00,
2013-01-10 16:09:00,58.1,18.3,29.91,WSW,255,10.0,15.0,21,0.00,,,0.00,Wunderground v.1.15,2013-01-10 23:09:00,
2013-01-10 16:14:00,58.0,18.2,29.92,SW,223,11.0,12.0,21,0.00,,,0.00,Wunderground v.1.15,2013-01-10 23:14:00,
2013-01-10 16:20:00,57.8,18.1,29.92,SW,236,11.0,16.0,21,0.00,,,0.00,Wunderground v.1.15,2013-01-10 23:20:00,
2013-01-10 16:25:00,57.7,18.0,29.92,SW,219,11.0,16.0,21,0.00,,,0.00,Wunderground v.1.15,2013-01-10 23:25:00,
2013-01-10 16:31:00,57.5,17.8,29.92,SW,225,10.0,11.0,21,0.00,,,0.00,Wunderground v.1.15,2013-01-10 23:31:00,
2013-01-10 16:37:00,57.2,17.6,29.92,SW,227,13.0,18.0,21,0.00,,,0.00,Wunderground v.1.15,2013-01-10 23:37:00,
2013-01-10 16:43:00,56.9,18.4,29.92,SW,219,13.0,15.0,22,0.00,,,0.00,Wunderground v.1.15,2013-01-10 23:43:00,
2013-01-10 16:49:00,56.8,18.3,29.92,SW,225,12.0,16.0,22,0.00,,,0.00,Wunderground v.1.15,2013-01-10 23:49:00,
2013-01-10 16:54:00,56.6,18.1,29.92,SW,229,12.0,13.0,22,0.00,,,0.00,Wunderground v.1.15,2013-01-10 23:54:00,
2013-01-10 17:00:00,56.3,18.9,29.92,SW,236,12.0,12.0,23,0.00,,,0.00,Wunderground v.1.15,2013-01-11 00:00:00,
2013-01-10 17:05:00,55.8,18.5,29.93,SW,229,10.0,13.0,23,0.00,,,0.00,Wunderground v.1.15,2013-01-11 00:05:00,
2013-01-10 17:10:00,55.5,18.2,29.93,SW,229,9.0,13.0,23,0.00,,,0.00,Wunderground v.1.15,2013-01-11 00:10:00,
2013-01-10 17:16:00,55.4,19.2,29.94,SW,236,11.0,14.0,24,0.00,,,0.00,Wunderground v.1.15,2013-01-11 00:16:00,
2013-01-10 17:21:00,55.3,19.1,29.93,WSW,257,10.0,11.0,24,0.00,,,0.00,Wunderground v.1.15,2013-01-11 00:21:00,
2013-01-10 17:27:00,55.2,19.0,29.93,SW,236,10.0,12.0,24,0.00,,,0.00,Wunderground v.1.15,2013-01-11 00:27:00,
2013-01-10 17:32:00,55.2,19.9,29.93,WSW,237,10.0,11.0,25,0.00,,,0.00,Wunderground v.1.15,2013-01-11 00:32:00,
2013-01-10 17:37:00,54.9,19.7,29.93,SW,232,9.0,13.0,25,0.00,,,0.00,Wunderground v.1.15,2013-01-11 00:37:00,
2013-01-10 17:43:00,54.6,19.4,29.93,WSW,250,9.0,9.0,25,0.00,,,0.00,Wunderground v.1.15,2013-01-11 00:43:00,
2013-01-10 17:48:00,54.3,20.1,29.92,SW,233,7.0,9.0,26,0.00,,,0.00,Wunderground v.1.15,2013-01-11 00:48:00,
2013-01-10 17:54:00,54.0,20.7,29.92,WSW,248,5.0,7.0,27,0.00,,,0.00,Wunderground v.1.15,2013-01-11 00:54:00,
2013-01-10 17:59:00,53.8,20.6,29.92,WSW,250,5.0,7.0,27,0.00,,,0.00,Wunderground v.1.15,2013-01-11 00:59:00,
2013-01-10 18:05:00,53.5,21.2,29.92,SW,232,5.0,6.0,28,0.00,,,0.00,Wunderground v.1.15,2013-01-11 01:05:00,
2013-01-10 18:10:00,53.5,21.2,29.92,WSW,252,5.0,6.0,28,0.00,,,0.00,Wunderground v.1.15,2013-01-11 01:10:00,
2013-01-10 18:15:00,53.5,21.2,29.92,WSW,242,6.0,8.0,28,0.00,,,0.00,Wunderground v.1.15,2013-01-11 01:15:00,
2013-01-10 18:21:00,53.3,21.0,29.92,SW,229,7.0,8.0,28,0.00,,,0.00,Wunderground v.1.15,2013-01-11 01:21:00,
2013-01-10 18:26:00,53.3,21.0,29.92,SW,223,8.0,10.0,28,0.00,,,0.00,Wunderground v.1.15,2013-01-11 01:26:00,
2013-01-10 18:32:00,53.2,20.9,29.92,SW,226,9.0,13.0,28,0.00,,,0.00,Wunderground v.1.15,2013-01-11 01:32:00,
2013-01-10 18:37:00,53.2,20.9,29.92,SW,228,10.0,13.0,28,0.00,,,0.00,Wunderground v.1.15,2013-01-11 01:37:00,
2013-01-10 18:42:00,53.1,20.8,29.92,SW,234,9.0,10.0,28,0.00,,,0.00,Wunderground v.1.15,2013-01-11 01:42:00,
2013-01-10 18:48:00,52.9,21.5,29.92,SW,229,9.0,11.0,29,0.00,,,0.00,Wunderground v.1.15,2013-01-11 01:48:00,
2013-01-10 18:53:00,52.8,21.4,29.91,SW,228,9.0,10.0,29,0.00,,,0.00,Wunderground v.1.15,2013-01-11 01:53:00,
2013-01-10 18:58:00,52.7,21.3,29.91,SSW,212,9.0,11.0,29,0.00,,,0.00,Wunderground v.1.15,2013-01-11 01:58:00,
2013-01-10 19:04:00,52.5,21.1,29.92,SSW,213,9.0,16.0,29,0.00,,,0.00,Wunderground v.1.15,2013-01-11 02:04:00,
2013-01-10 19:09:00,52.4,21.0,29.91,SW,224,10.0,16.0,29,0.00,,,0.00,Wunderground v.1.15,2013-01-11 02:09:00,
2013-01-10 19:14:00,52.3,20.9,29.90,SW,233,10.0,12.0,29,0.00,,,0.00,Wunderground v.1.15,2013-01-11 02:14:00,
2013-01-10 19:20:00,52.0,20.7,29.90,SW,223,8.0,8.0,29,0.00,,,0.00,Wunderground v.1.15,2013-01-11 02:20:00,
2013-01-10 19:25:00,51.8,20.5,29.90,SW,233,8.0,11.0,29,0.00,,,0.00,Wunderground v.1.15,2013-01-11 02:25:00,
2013-01-10 19:31:00,51.8,19.7,29.89,SW,215,9.0,11.0,28,0.00,,,0.00,Wunderground v.1.15,2013-01-11 02:31:00,
2013-01-10 19:36:00,52.0,19.9,29.88,SW,229,10.0,13.0,28,0.00,,,0.00,Wunderground v.1.15,2013-01-11 02:36:00,
2013-01-10 19:42:00,52.0,19.0,29.87,SW,229,11.0,16.0,27,0.00,,,0.00,Wunderground v.1.15,2013-01-11 02:42:00,
2013-01-10 19:47:00,51.9,18.9,29.87,SW,233,10.0,16.0,27,0.00,,,0.00,Wunderground v.1.15,2013-01-11 02:47:00,
2013-01-10 19:52:00,51.7,18.7,29.88,SW,230,10.0,13.0,27,0.00,,,0.00,Wunderground v.1.15,2013-01-11 02:52:00,
2013-01-10 19:58:00,51.5,18.6,29.88,SW,231,11.0,14.0,27,0.00,,,0.00,Wunderground v.1.15,2013-01-11 02:58:00,
2013-01-10 20:03:00,51.4,18.5,29.87,SSW,213,10.0,14.0,27,0.00,,,0.00,Wunderground v.1.15,2013-01-11 03:03:00,
2013-01-10 20:09:00,51.3,18.4,29.87,SW,215,10.0,14.0,27,0.00,,,0.00,Wunderground v.1.15,2013-01-11 03:09:00,
2013-01-10 20:14:00,51.3,18.4,29.87,WSW,240,11.0,16.0,27,0.00,,,0.00,Wunderground v.1.15,2013-01-11 03:14:00,
2013-01-10 20:20:00,51.0,19.0,29.87,SW,229,10.0,10.0,28,0.00,,,0.00,Wunderground v.1.15,2013-01-11 03:20:00,
2013-01-10 20:25:00,50.6,19.5,29.87,SSW,211,8.0,10.0,29,0.00,,,0.00,Wunderground v.1.15,2013-01-11 03:25:00,
2013-01-10 20:30:00,50.5,19.4,29.88,SW,221,9.0,9.0,29,0.00,,,0.00,Wunderground v.1.15,2013-01-11 03:30:00,
2013-01-10 20:36:00,50.4,19.3,29.87,SW,220,9.0,14.0,29,0.00,,,0.00,Wunderground v.1.15,2013-01-11 03:36:00,
2013-01-10 20:41:00,50.2,19.1,29.87,SSW,205,9.0,9.0,29,0.00,,,0.00,Wunderground v.1.15,2013-01-11 03:41:00,
2013-01-10 20:47:00,50.3,18.4,29.88,SSW,192,10.0,15.0,28,0.00,,,0.00,Wunderground v.1.15,2013-01-11 03:47:00,
2013-01-10 20:52:00,50.4,17.6,29.87,SW,215,12.0,12.0,27,0.00,,,0.00,Wunderground v.1.15,2013-01-11 03:52:00,
2013-01-10 20:57:00,50.1,18.2,29.87,SW,217,10.0,12.0,28,0.00,,,0.00,Wunderground v.1.15,2013-01-11 03:57:00,
2013-01-10 21:03:00,49.9,18.0,29.88,SW,219,9.0,11.0,28,0.00,,,0.00,Wunderground v.1.15,2013-01-11 04:03:00,
2013-01-10 21:08:00,49.9,18.0,29.88,SW,217,9.0,13.0,28,0.00,,,0.00,Wunderground v.1.15,2013-01-11 04:08:00,
2013-01-10 21:14:00,49.9,18.0,29.87,SW,220,10.0,12.0,28,0.00,,,0.00,Wunderground v.1.15,2013-01-11 04:14:00,
2013-01-10 21:20:00,49.8,18.0,29.87,SSW,203,10.0,10.0,28,0.00,,,0.00,Wunderground v.1.15,2013-01-11 04:20:00,
2013-01-10 21:26:00,49.7,17.0,29.87,SW,225,10.0,17.0,27,0.00,,,0.00,Wunderground v.1.15,2013-01-11 04:26:00,
2013-01-10 21:31:00,49.5,16.9,29.87,SW,236,9.0,10.0,27,0.00,,,0.00,Wunderground v.1.15,2013-01-11 04:31:00,
2013-01-10 21:37:00,49.5,16.9,29.87,SW,233,9.0,10.0,27,0.00,,,0.00,Wunderground v.1.15,2013-01-11 04:37:00,
2013-01-10 21:42:00,49.7,17.0,29.87,SW,221,10.0,14.0,27,0.00,,,0.00,Wunderground v.1.15,2013-01-11 04:42:00,
2013-01-10 21:48:00,49.6,16.9,29.86,SSW,200,10.0,14.0,27,0.00,,,0.00,Wunderground v.1.15,2013-01-11 04:48:00,
2013-01-10 21:53:00,49.7,17.0,29.86,SSW,213,10.0,13.0,27,0.00,,,0.00,Wunderground v.1.15,2013-01-11 04:53:00,
2013-01-10 21:59:00,49.6,16.9,29.85,SW,215,10.0,14.0,27,0.00,,,0.00,Wunderground v.1.15,2013-01-11 04:59:00,
2013-01-10 22:00:00,49.6,16.9,29.85,SW,234,10.0,11.0,27,0.00,,,0.00,Wunderground v.1.15,2013-01-11 05:00:00,
2013-01-10 22:04:00,49.6,16.9,29.86,SW,223,10.0,21.0,27,0.00,,,0.00,Wunderground v.1.15,2013-01-11 05:04:00,
2013-01-10 22:06:00,49.6,16.9,29.86,WSW,248,11.0,21.0,27,0.00,,,0.00,Wunderground v.1.15,2013-01-11 05:06:00,
2013-01-10 22:10:00,49.6,16.9,29.86,SW,219,11.0,11.0,27,0.00,,,0.00,Wunderground v.1.15,2013-01-11 05:10:00,
2013-01-10 22:16:00,49.6,16.9,29.85,SW,214,10.0,21.0,27,0.00,,,0.00,Wunderground v.1.15,2013-01-11 05:16:00,
2013-01-10 22:22:00,49.7,17.0,29.85,SW,227,10.0,21.0,27,0.00,,,0.00,Wunderground v.1.15,2013-01-11 05:22:00,
2013-01-10 22:27:00,49.7,17.0,29.85,SSW,198,11.0,21.0,27,0.00,,,0.00,Wunderground v.1.15,2013-01-11 05:27:00,
2013-01-10 22:33:00,49.8,17.1,29.85,SW,235,11.0,21.0,27,0.00,,,0.00,Wunderground v.1.15,2013-01-11 05:33:00,
2013-01-10 22:39:00,49.9,17.2,29.84,SW,233,13.0,21.0,27,0.00,,,0.00,Wunderground v.1.15,2013-01-11 05:39:00,
2013-01-10 22:44:00,49.9,17.2,29.85,SW,227,13.0,21.0,27,0.00,,,0.00,Wunderground v.1.15,2013-01-11 05:44:00,
2013-01-10 22:50:00,49.7,17.0,29.84,SW,234,13.0,21.0,27,0.00,,,0.00,Wunderground v.1.15,2013-01-11 05:50:00,
2013-01-10 22:56:00,49.6,17.8,29.84,South,191,13.0,21.0,28,0.00,,,0.00,Wunderground v.1.15,2013-01-11 05:56:00,
2013-01-10 23:02:00,49.5,17.7,29.84,SW,223,15.0,21.0,28,0.00,,,0.00,Wunderground v.1.15,2013-01-11 06:02:00,
2013-01-10 23:07:00,49.3,18.3,29.83,SW,218,17.0,22.0,29,0.00,,,0.00,Wunderground v.1.15,2013-01-11 06:07:00,
2013-01-10 23:13:00,49.2,18.3,29.83,SSW,203,17.0,21.0,29,0.00,,,0.00,Wunderground v.1.15,2013-01-11 06:13:00,
2013-01-10 23:19:00,49.1,19.0,29.83,SW,221,16.0,25.0,30,0.00,,,0.00,Wunderground v.1.15,2013-01-11 06:19:00,
2013-01-10 23:25:00,49.0,18.9,29.83,SSW,206,16.0,26.0,30,0.00,,,0.00,Wunderground v.1.15,2013-01-11 06:25:00,
2013-01-10 23:31:00,48.8,18.7,29.84,SW,235,17.0,25.0,30,0.00,,,0.00,Wunderground v.1.15,2013-01-11 06:31:00,
2013-01-10 23:36:00,48.7,19.4,29.84,SSW,205,16.0,25.0,31,0.00,,,0.00,Wunderground v.1.15,2013-01-11 06:36:00,
2013-01-10 23:42:00,48.7,19.4,29.85,SW,231,16.0,22.0,31,0.00,,,0.00,Wunderground v.1.15,2013-01-11 06:42:00,
2013-01-10 23:48:00,48.5,19.2,29.84,SW,223,16.0,22.0,31,0.00,,,0.00,Wunderground v.1.15,2013-01-11 06:48:00,
2013-01-10 23:53:00,48.5,19.9,29.85,SW,221,16.0,21.0,32,0.00,,,0.00,Wunderground v.1.15,2013-01-11 06:53:00,
2013-01-10 23:59:00,48.2,20.4,29.85,SSW,207,15.0,21.0,33,0.00,,,0.00,Wunderground v.1.15,2013-01-11 06:59:00,